Observation data for Plains on 12/08/2019      Previous  Date       Current Mesonet Observations  Soil Data  Daily Summary Page  Observations in Plain Language
KPPS 080600Z 23008KT 08/02 A3006 RMK A01 T00840019  RH  064%=      5-min Rain = 0
KPPS 080605Z 23008KT 09/02 A3006 RMK A01 T00860019  RH  064%=      5-min Rain = 0
KPPS 080610Z 23009KT 09/02 A3006 RMK A01 T00870020  RH  064%=      5-min Rain = 0
KPPS 080615Z 24009KT 09/02 A3006 RMK A01 T00900021  RH  063%=      5-min Rain = 0
KPPS 080620Z 23009KT 09/02 A3005 RMK A01 T00920022  RH  062%=      5-min Rain = 0
KPPS 080625Z 23009KT 09/02 A3005 RMK A01 T00930022  RH  062%=      5-min Rain = 0
KPPS 080630Z 24008KT 09/02 A3006 RMK A01 T00910022  RH  063%=      5-min Rain = 0
KPPS 080635Z 24009KT 09/02 A3006 RMK A01 T00910022  RH  063%=      5-min Rain = 0
KPPS 080640Z 24008KT 09/02 A3005 RMK A01 T00890021  RH  063%=      5-min Rain = 0
KPPS 080645Z 24008KT 09/02 A3004 RMK A01 T00880021  RH  064%=      5-min Rain = 0
KPPS 080650Z 24008KT 09/02 A3004 RMK A01 T00880022  RH  064%=      5-min Rain = 0
KPPS 080655Z 24008KT 09/02 A3004 RMK A01 T00880022  RH  064%=      5-min Rain = 0
KPPS 080700Z 24007KT 09/02 A3004 RMK A01 T00880022  RH  064%=      5-min Rain = 0
KPPS 080705Z 25006KT 09/02 A3003 RMK A01 T00880022  RH  065%=      5-min Rain = 0
KPPS 080710Z 23005KT 09/02 A3002 RMK A01 T00850022  RH  065%=      5-min Rain = 0
KPPS 080715Z 22006KT 09/02 A3001 RMK A01 T00870022  RH  065%=      5-min Rain = 0
KPPS 080720Z 22006KT 09/02 A3001 RMK A01 T00860022  RH  065%=      5-min Rain = 0
KPPS 080725Z 23006KT 08/02 A3001 RMK A01 T00840022  RH  066%=      5-min Rain = 0
KPPS 080730Z 24007KT 08/02 A3001 RMK A01 T00820022  RH  067%=      5-min Rain = 0
KPPS 080735Z 24008KT 08/02 A3002 RMK A01 T00820022  RH  067%=      5-min Rain = 0
KPPS 080740Z 23008KT 08/02 A3002 RMK A01 T00820023  RH  067%=      5-min Rain = 0
KPPS 080745Z 23008KT 08/02 A3002 RMK A01 T00830023  RH  067%=      5-min Rain = 0
KPPS 080750Z 23008KT 08/02 A3002 RMK A01 T00820023  RH  067%=      5-min Rain = 0
KPPS 080755Z 23008KT 08/02 A3001 RMK A01 T00820023  RH  067%=      5-min Rain = 0
KPPS 080800Z 24008KT 08/02 A3001 RMK A01 T00810023  RH  068%=      5-min Rain = 0
KPPS 080805Z 25008KT 08/02 A3001 RMK A01 T00790023  RH  069%=      5-min Rain = 0
KPPS 080810Z 26007KT 08/02 A3001 RMK A01 T00780023  RH  069%=      5-min Rain = 0
KPPS 080815Z 26008KT 08/02 A3001 RMK A01 T00780024  RH  070%=      5-min Rain = 0
KPPS 080820Z 25007KT 08/02 A3001 RMK A01 T00780024  RH  070%=      5-min Rain = 0
KPPS 080825Z 25007KT 08/02 A3001 RMK A01 T00780024  RH  070%=      5-min Rain = 0
KPPS 080830Z 24007KT 08/03 A3001 RMK A01 T00790025  RH  070%=      5-min Rain = 0
KPPS 080835Z 25007KT 08/02 A3001 RMK A01 T00780024  RH  070%=      5-min Rain = 0
KPPS 080840Z 27007KT 07/02 A3002 RMK A01 T00710022  RH  072%=      5-min Rain = 0
KPPS 080845Z 28008KT 07/02 A3002 RMK A01 T00650021  RH  075%=      5-min Rain = 0
KPPS 080850Z 28008KT 06/02 A3002 RMK A01 T00640021  RH  075%=      5-min Rain = 0
KPPS 080855Z 28008KT 06/02 A3001 RMK A01 T00630020  RH  075%=      5-min Rain = 0
KPPS 080900Z 27006KT 06/02 A30 RMK A01 T00590019  RH  076%=      5-min Rain = 0
KPPS 080905Z 28007KT 06/02 A3001 RMK A01 T00560018  RH  078%=      5-min Rain = 0
KPPS 080910Z 28009KT 06/02 A3001 RMK A01 T00590021  RH  077%=      5-min Rain = 0
KPPS 080915Z 29010KT 06/02 A3001 RMK A01 T00610020  RH  076%=      5-min Rain = 0
KPPS 080920Z 29009KT 06/02 A3001 RMK A01 T00590020  RH  077%=      5-min Rain = 0
KPPS 080925Z 28010KT 06/02 A3001 RMK A01 T00570020  RH  078%=      5-min Rain = 0
KPPS 080930Z 28009KT 05/02 A3001 RMK A01 T00540020  RH  079%=      5-min Rain = 0
KPPS 080935Z 29008KT 05/02 A30 RMK A01 T00520019  RH  080%=      5-min Rain = 0
KPPS 080940Z 29009KT 05/02 A30 RMK A01 T00510019  RH  081%=      5-min Rain = 0
KPPS 080945Z 28009KT 05/02 A3001 RMK A01 T00530020  RH  081%=      5-min Rain = 0
KPPS 080950Z 28009KT 05/02 A30 RMK A01 T00540020  RH  080%=      5-min Rain = 0
KPPS 080955Z 28010KT 05/02 A3001 RMK A01 T00540020  RH  080%=      5-min Rain = 0
KPPS 081000Z 28009KT 05/02 A30 RMK A01 T00540020  RH  080%=      5-min Rain = 0
KPPS 081005Z 27009KT 05/02 A30 RMK A01 T00530020  RH  080%=      5-min Rain = 0
KPPS 081010Z 26009KT 05/02 A2999 RMK A01 T00530020  RH  081%=      5-min Rain = 0
KPPS 081015Z 26009KT 05/02 A2999 RMK A01 T00520019  RH  081%=      5-min Rain = 0
KPPS 081020Z 26009KT 05/02 A2999 RMK A01 T00490018  RH  081%=      5-min Rain = 0
KPPS 081025Z 26008KT 05/02 A2998 RMK A01 T00470018  RH  082%=      5-min Rain = 0
KPPS 081030Z 26007KT 05/02 A2998 RMK A01 T00450017  RH  083%=      5-min Rain = 0
KPPS 081035Z 26008KT 04/02 A2998 RMK A01 T00430016  RH  084%=      5-min Rain = 0
KPPS 081040Z 26009KT 04/02 A2998 RMK A01 T00430017  RH  084%=      5-min Rain = 0
KPPS 081045Z 26009KT 05/02 A2998 RMK A01 T00460018  RH  083%=      5-min Rain = 0
KPPS 081050Z 26008KT 05/02 A2998 RMK A01 T00460017  RH  083%=      5-min Rain = 0
KPPS 081055Z 26008KT 04/02 A2998 RMK A01 T00440016  RH  083%=      5-min Rain = 0
KPPS 081100Z 26008KT 04/01 A2999 RMK A01 T00400014  RH  085%=      5-min Rain = 0
KPPS 081105Z 27008KT 04/02 A2999 RMK A01 T00400016  RH  085%=      5-min Rain = 0
KPPS 081110Z 28009KT 05/02 A2999 RMK A01 T00450018  RH  084%=      5-min Rain = 0
KPPS 081115Z 28009KT 05/02 A2998 RMK A01 T00470019  RH  083%=      5-min Rain = 0
KPPS 081120Z 29009KT 05/02 A2998 RMK A01 T00480019  RH  083%=      5-min Rain = 0
KPPS 081125Z 29010KT 05/02 A2998 RMK A01 T00450018  RH  084%=      5-min Rain = 0
KPPS 081130Z 28010KT 05/02 A2998 RMK A01 T00450019  RH  084%=      5-min Rain = 0
KPPS 081135Z 28010KT 05/02 A2997 RMK A01 T00460020  RH  084%=      5-min Rain = 0
KPPS 081140Z 28010KT 05/02 A2997 RMK A01 T00490020  RH  083%=      5-min Rain = 0
KPPS 081145Z 27009KT 05/02 A2997 RMK A01 T00470020  RH  084%=      5-min Rain = 0
KPPS 081150Z 26009KT 05/02 A2997 RMK A01 T00460020  RH  085%=      5-min Rain = 0
KPPS 081155Z 26009KT 05/02 A2997 RMK A01 T00450020  RH  085%=      5-min Rain = 0
KPPS 081200Z 26009KT 04/02 A2997 RMK A01 T00440019  RH  085%=      5-min Rain = 0
KPPS 081205Z 26009KT 04/02 A2997 RMK A01 T00430020  RH  086%=      5-min Rain = 0
KPPS 081210Z 26008KT 05/02 A2997 RMK A01 T00450021  RH  086%=      5-min Rain = 0
KPPS 081215Z 26009KT 05/02 A2997 RMK A01 T00450021  RH  086%=      5-min Rain = 0
KPPS 081220Z 26009KT 05/02 A2997 RMK A01 T00460021  RH  085%=      5-min Rain = 0
KPPS 081225Z 26009KT 05/02 A2997 RMK A01 T00480022  RH  085%=      5-min Rain = 0
KPPS 081230Z 27009KT 05/02 A2997 RMK A01 T00510024  RH  084%=      5-min Rain = 0
KPPS 081235Z 27009KT 06/03 A2997 RMK A01 T00560026  RH  082%=      5-min Rain = 0
KPPS 081240Z 26009KT 06/03 A2997 RMK A01 T00570026  RH  082%=      5-min Rain = 0
KPPS 081245Z 26009KT 06/03 A2997 RMK A01 T00590027  RH  081%=      5-min Rain = 0
KPPS 081250Z 26009KT 06/03 A2997 RMK A01 T00620028  RH  080%=      5-min Rain = 0
KPPS 081255Z 26008KT 06/03 A2997 RMK A01 T00610027  RH  081%=      5-min Rain = 0
KPPS 081300Z 26009KT 06/03 A2997 RMK A01 T00580027  RH  081%=      5-min Rain = 0
KPPS 081305Z 27008KT 06/03 A2997 RMK A01 T00560026  RH  082%=      5-min Rain = 0
KPPS 081310Z 27008KT 06/03 A2997 RMK A01 T00550025  RH  082%=      5-min Rain = 0
KPPS 081315Z 26008KT 05/02 A2997 RMK A01 T00540024  RH  083%=      5-min Rain = 0
KPPS 081320Z 26008KT 05/02 A2997 RMK A01 T00510024  RH  084%=      5-min Rain = 0
KPPS 081325Z 26008KT 05/02 A2997 RMK A01 T00480023  RH  085%=      5-min Rain = 0
KPPS 081330Z 26008KT 05/02 A2997 RMK A01 T00470023  RH  086%=      5-min Rain = 0
KPPS 081335Z 26008KT 05/02 A2997 RMK A01 T00450022  RH  087%=      5-min Rain = 0
KPPS 081340Z 25008KT 05/03 A2997 RMK A01 T00480026  RH  087%=      5-min Rain = 0
KPPS 081345Z 25008KT 05/03 A2997 RMK A01 T00490025  RH  085%=      5-min Rain = 0
KPPS 081350Z 25009KT 05/03 A2998 RMK A01 T00510026  RH  086%=      5-min Rain = 0
KPPS 081355Z 26008KT 05/02 A2998 RMK A01 T00490024  RH  085%=      5-min Rain = 0
KPPS 081400Z 27008KT 05/03 A2998 RMK A01 T00470025  RH  087%=      5-min Rain = 0
KPPS 081405Z 27008KT 05/03 A2998 RMK A01 T00510027  RH  086%=      5-min Rain = 0
KPPS 081410Z 26007KT 05/03 A2997 RMK A01 T00540029  RH  085%=      5-min Rain = 0
KPPS 081415Z 27007KT 06/03 A2997 RMK A01 T00570030  RH  084%=      5-min Rain = 0
KPPS 081420Z 27007KT 06/03 A2997 RMK A01 T00590031  RH  084%=      5-min Rain = 0
KPPS 081425Z 27008KT 06/03 A2997 RMK A01 T00610032  RH  083%=      5-min Rain = 0
KPPS 081430Z 27008KT 06/03 A2998 RMK A01 T00620032  RH  082%=      5-min Rain = 0
KPPS 081435Z 27008KT 06/03 A2998 RMK A01 T00630032  RH  082%=      5-min Rain = 0
KPPS 081440Z 27008KT 06/03 A2998 RMK A01 T00640034  RH  082%=      5-min Rain = 0
KPPS 081445Z 27008KT 07/04 A2998 RMK A01 T00680036  RH  081%=      5-min Rain = 0
KPPS 081450Z 26007KT 07/04 A2997 RMK A01 T00720037  RH  080%=      5-min Rain = 0
KPPS 081455Z 27008KT 08/04 A2997 RMK A01 T00770038  RH  078%=      5-min Rain = 0
KPPS 081500Z 27008KT 08/04 A2997 RMK A01 T00820038  RH  075%=      5-min Rain = 0
KPPS 081505Z 27008KT 09/04 A2997 RMK A01 T00860039  RH  073%=      5-min Rain = 0
KPPS 081510Z 27009KT 09/04 A2998 RMK A01 T00900039  RH  072%=      5-min Rain = 0
KPPS 081515Z 26008KT 09/04 A2998 RMK A01 T00930040  RH  071%=      5-min Rain = 0
KPPS 081520Z 26008KT 10/04 A2997 RMK A01 T00990042  RH  069%=      5-min Rain = 0
KPPS 081525Z 26009KT 11/04 A2996 RMK A01 T01080043  RH  066%=      5-min Rain = 0
KPPS 081530Z 26012KT 12/04 A2997 RMK A01 T01180043  RH  061%=      5-min Rain = 0
KPPS 081535Z 27012KT 12/04 A2997 RMK A01 T01230043  RH  059%=      5-min Rain = 0
KPPS 081540Z 26012KT 13/04 A2997 RMK A01 T01290043  RH  057%=      5-min Rain = 0
KPPS 081545Z 26012KT 13/04 A2997 RMK A01 T01330043  RH  055%=      5-min Rain = 0
KPPS 081550Z 26012KT 13/04 A2996 RMK A01 T01320041  RH  055%=      5-min Rain = 0
KPPS 081555Z 27013KT 14/04 A2997 RMK A01 T01350041  RH  054%=      5-min Rain = 0
KPPS 081600Z 28014KT 14/04 A2997 RMK A01 T01400041  RH  052%=      5-min Rain = 0
KPPS 081605Z 28014KT 14/04 A2997 RMK A01 T01430040  RH  051%=      5-min Rain = 0
KPPS 081610Z 27014KT 15/04 A2997 RMK A01 T01460042  RH  050%=      5-min Rain = 0
KPPS 081615Z 27015G20KT 15/04 A2997 RMK A01 T01480041  RH  050%=      5-min Rain = 0
KPPS 081620Z 28016G21KT 15/04 A2996 RMK A01 T01510042  RH  049%=      5-min Rain = 0
KPPS 081625Z 28017G22KT 16/04 A2997 RMK A01 T01550043  RH  048%=      5-min Rain = 0
KPPS 081630Z 28017G25KT 16/04 A2997 RMK A01 T01580042  RH  047%=      5-min Rain = 0
KPPS 081635Z 28017KT 16/04 A2997 RMK A01 T01580041  RH  047%=      5-min Rain = 0
KPPS 081640Z 28018KT 16/04 A2997 RMK A01 T01600041  RH  046%=      5-min Rain = 0
KPPS 081645Z 28017G23KT 16/04 A2997 RMK A01 T01590041  RH  046%=      5-min Rain = 0
KPPS 081650Z 28016G22KT 16/04 A2997 RMK A01 T01610041  RH  046%=      5-min Rain = 0
KPPS 081655Z 28016G21KT 16/04 A2996 RMK A01 T01640042  RH  045%=      5-min Rain = 0
KPPS 081700Z 27015KT 16/04 A2996 RMK A01 T01640042  RH  045%=      5-min Rain = 0
KPPS 081705Z 27017KT 17/04 A2996 RMK A01 T01660042  RH  045%=      5-min Rain = 0
KPPS 081710Z 27017KT 17/04 A2996 RMK A01 T01700043  RH  044%=      5-min Rain = 0
KPPS 081715Z 27016G21KT 17/04 A2996 RMK A01 T01710043  RH  043%=      5-min Rain = 0
KPPS 081720Z 26016KT 17/04 A2995 RMK A01 T01720043  RH  043%=      5-min Rain = 0
KPPS 081725Z 27016KT 18/04 A2995 RMK A01 T01770044  RH  042%=      5-min Rain = 0
KPPS 081730Z 26016G21KT 18/04 A2995 RMK A01 T01760042  RH  042%=      5-min Rain = 0
KPPS 081735Z 27016G22KT 18/04 A2994 RMK A01 T01750041  RH  042%=      5-min Rain = 0
KPPS 081740Z 27015G21KT 18/04 A2995 RMK A01 T01770042  RH  042%=      5-min Rain = 0
KPPS 081745Z 26016KT 18/04 A2995 RMK A01 T01750041  RH  042%=      5-min Rain = 0
KPPS 081750Z 27017KT 18/04 A2995 RMK A01 T01750040  RH  042%=      5-min Rain = 0
KPPS 081755Z 26017KT 18/04 A2994 RMK A01 T01750041  RH  042%=      5-min Rain = 0
KPPS 081800Z 26015G21KT 18/04 A2994 RMK A01 T01760042  RH  042%=      5-min Rain = 0
KPPS 081805Z 26017G22KT 18/04 A2994 RMK A01 T01790043  RH  041%=      5-min Rain = 0
KPPS 081810Z 26017KT 18/04 A2993 RMK A01 T01810043  RH  041%=      5-min Rain = 0
KPPS 081815Z 26017G22KT 18/04 A2993 RMK A01 T01820043  RH  041%=      5-min Rain = 0
KPPS 081820Z 26018KT 18/04 A2993 RMK A01 T01830041  RH  040%=      5-min Rain = 0
KPPS 081825Z 27018KT 19/04 A2993 RMK A01 T01890044  RH  039%=      5-min Rain = 0
KPPS 081830Z 26018G24KT 19/04 A2993 RMK A01 T01900043  RH  039%=      5-min Rain = 0
KPPS 081835Z 26017G23KT 19/04 A2992 RMK A01 T01930043  RH  038%=      5-min Rain = 0
KPPS 081840Z 27018KT 19/04 A2992 RMK A01 T01930043  RH  038%=      5-min Rain = 0
KPPS 081845Z 27017KT 20/04 A2991 RMK A01 T01950043  RH  038%=      5-min Rain = 0
KPPS 081850Z 27018G23KT 20/04 A2992 RMK A01 T01950043  RH  037%=      5-min Rain = 0
KPPS 081855Z 27018G24KT 20/04 A2991 RMK A01 T01980042  RH  036%=      5-min Rain = 0
KPPS 081900Z 27017G23KT 20/04 A2991 RMK A01 T02000042  RH  036%=      5-min Rain = 0
KPPS 081905Z 26018G24KT 20/04 A299 RMK A01 T01990040  RH  036%=      5-min Rain = 0
KPPS 081910Z 27015KT 20/04 A299 RMK A01 T02040044  RH  036%=      5-min Rain = 0
KPPS 081915Z 27017KT 21/04 A299 RMK A01 T02050041  RH  035%=      5-min Rain = 0
KPPS 081920Z 27016KT 21/04 A2989 RMK A01 T02050041  RH  035%=      5-min Rain = 0
KPPS 081925Z 25017G24KT 21/04 A2989 RMK A01 T02050041  RH  035%=      5-min Rain = 0
KPPS 081930Z 26016G21KT 21/04 A2989 RMK A01 T02060041  RH  034%=      5-min Rain = 0
KPPS 081935Z 26018KT 20/04 A2989 RMK A01 T02020039  RH  035%=      5-min Rain = 0
KPPS 081940Z 26019KT 20/04 A2989 RMK A01 T02010039  RH  035%=      5-min Rain = 0
KPPS 081945Z 25019G26KT 21/04 A2989 RMK A01 T02050040  RH  034%=      5-min Rain = 0
KPPS 081950Z 25018KT 20/04 A2988 RMK A01 T02040040  RH  034%=      5-min Rain = 0
KPPS 081955Z 25018G23KT 21/04 A2988 RMK A01 T02060040  RH  034%=      5-min Rain = 0
KPPS 082000Z 25018KT 20/04 A2987 RMK A01 T02040039  RH  034%=      5-min Rain = 0
KPPS 082005Z 25018KT 20/04 A2987 RMK A01 T01980037  RH  035%=      5-min Rain = 0
KPPS 082010Z 25017KT 20/04 A2987 RMK A01 T01990039  RH  035%=      5-min Rain = 0
KPPS 082015Z 24015KT 20/04 A2987 RMK A01 T02000039  RH  035%=      5-min Rain = 0
KPPS 082020Z 24016G21KT 20/04 A2987 RMK A01 T01990039  RH  035%=      5-min Rain = 0
KPPS 082025Z 24017G23KT 20/04 A2987 RMK A01 T01990040  RH  036%=      5-min Rain = 0
KPPS 082030Z 24018KT 20/04 A2987 RMK A01 T02000039  RH  035%=      5-min Rain = 0
KPPS 082035Z 24017KT 20/04 A2987 RMK A01 T01990040  RH  036%=      5-min Rain = 0
KPPS 082040Z 24018KT 20/04 A2987 RMK A01 T01970040  RH  036%=      5-min Rain = 0
KPPS 082045Z 24018KT 20/04 A2987 RMK A01 T01960040  RH  036%=      5-min Rain = 0
KPPS 082050Z 24016KT 19/04 A2986 RMK A01 T01940041  RH  037%=      5-min Rain = 0
KPPS 082055Z 25015KT 19/04 A2986 RMK A01 T01940041  RH  037%=      5-min Rain = 0
KPPS 082100Z 25016KT 19/04 A2986 RMK A01 T01930040  RH  037%=      5-min Rain = 0
KPPS 082105Z 25017KT 19/04 A2986 RMK A01 T01940041  RH  037%=      5-min Rain = 0
KPPS 082110Z 25014G22KT 19/04 A2986 RMK A01 T01930043  RH  038%=      5-min Rain = 0
KPPS 082115Z 25013KT 19/04 A2986 RMK A01 T01920043  RH  038%=      5-min Rain = 0
KPPS 082120Z 25014KT 19/04 A2986 RMK A01 T01920044  RH  038%=      5-min Rain = 0
KPPS 082125Z 25014KT 19/04 A2985 RMK A01 T01910044  RH  038%=      5-min Rain = 0
KPPS 082130Z 24012KT 19/04 A2985 RMK A01 T01910044  RH  039%=      5-min Rain = 0
KPPS 082135Z 25013KT 19/04 A2985 RMK A01 T01910044  RH  039%=      5-min Rain = 0
KPPS 082140Z 25012KT 19/04 A2984 RMK A01 T01920044  RH  038%=      5-min Rain = 0
KPPS 082145Z 25012G17KT 20/05 A2984 RMK A01 T01960045  RH  038%=      5-min Rain = 0
KPPS 082150Z 25014G19KT 20/05 A2984 RMK A01 T01970045  RH  037%=      5-min Rain = 0
KPPS 082155Z 25013KT 20/05 A2984 RMK A01 T01960045  RH  038%=      5-min Rain = 0
KPPS 082200Z 25012KT 19/05 A2985 RMK A01 T01940045  RH  038%=      5-min Rain = 0
KPPS 082205Z 25012KT 19/05 A2984 RMK A01 T01930045  RH  038%=      5-min Rain = 0
KPPS 082210Z 25011KT 20/05 A2984 RMK A01 T01950046  RH  038%=      5-min Rain = 0
KPPS 082215Z 26011G16KT 20/05 A2984 RMK A01 T01970047  RH  038%=      5-min Rain = 0
KPPS 082220Z 26012KT 20/05 A2984 RMK A01 T01970046  RH  038%=      5-min Rain = 0
KPPS 082225Z 26012KT 20/05 A2984 RMK A01 T01960047  RH  038%=      5-min Rain = 0
KPPS 082230Z 26011KT 20/05 A2984 RMK A01 T01950047  RH  039%=      5-min Rain = 0
KPPS 082235Z 26010KT 20/05 A2984 RMK A01 T01950048  RH  039%=      5-min Rain = 0
KPPS 082240Z 26010KT 19/05 A2984 RMK A01 T01930048  RH  039%=      5-min Rain = 0
KPPS 082245Z 26010KT 19/05 A2984 RMK A01 T01920048  RH  039%=      5-min Rain = 0
KPPS 082250Z 26008KT 19/05 A2984 RMK A01 T01900048  RH  040%=      5-min Rain = 0
KPPS 082255Z 26007KT 19/05 A2984 RMK A01 T01870049  RH  041%=      5-min Rain = 0
KPPS 082300Z 27007KT 19/05 A2984 RMK A01 T01850049  RH  042%=      5-min Rain = 0
KPPS 082305Z 28008KT 18/05 A2984 RMK A01 T01840049  RH  042%=      5-min Rain = 0
KPPS 082310Z 29008KT 18/05 A2984 RMK A01 T01830049  RH  042%=      5-min Rain = 0
KPPS 082315Z 29008KT 18/05 A2984 RMK A01 T01790049  RH  043%=      5-min Rain = 0
KPPS 082320Z 29007KT 18/05 A2984 RMK A01 T01750048  RH  044%=      5-min Rain = 0
KPPS 082325Z 30007KT 17/05 A2984 RMK A01 T01710048  RH  045%=      5-min Rain = 0
KPPS 082330Z 30008KT 17/05 A2985 RMK A01 T01690047  RH  045%=      5-min Rain = 0
KPPS 082335Z 29009KT 16/05 A2985 RMK A01 T01630047  RH  047%=      5-min Rain = 0
KPPS 082340Z 29009KT 16/05 A2985 RMK A01 T01570047  RH  049%=      5-min Rain = 0
KPPS 082345Z 29010KT 15/05 A2986 RMK A01 T01540047  RH  050%=      5-min Rain = 0
KPPS 082350Z 30010KT 16/05 A2986 RMK A01 T01550046  RH  049%=      5-min Rain = 0
KPPS 082355Z 29011KT 15/05 A2986 RMK A01 T01540046  RH  050%=      5-min Rain = 0
KPPS 090000Z 28011KT 15/05 A2985 RMK A01 T01530047  RH  050%=      5-min Rain = 0
KPPS 090005Z 28010KT 15/05 A2985 RMK A01 T01540047  RH  050%=      5-min Rain = 0
KPPS 090010Z 28010KT 15/05 A2985 RMK A01 T01530047  RH  050%=      5-min Rain = 0
KPPS 090015Z 28010KT 15/05 A2986 RMK A01 T01480047  RH  052%=      5-min Rain = 0
KPPS 090020Z 29009KT 14/05 A2986 RMK A01 T01420047  RH  054%=      5-min Rain = 0
KPPS 090025Z 28008KT 14/05 A2986 RMK A01 T01410047  RH  054%=      5-min Rain = 0
KPPS 090030Z 28008KT 14/05 A2986 RMK A01 T01370046  RH  055%=      5-min Rain = 0
KPPS 090035Z 28008KT 13/05 A2986 RMK A01 T01320046  RH  057%=      5-min Rain = 0
KPPS 090040Z 29008KT 13/05 A2987 RMK A01 T01300047  RH  058%=      5-min Rain = 0
KPPS 090045Z 29009KT 13/05 A2987 RMK A01 T01300047  RH  058%=      5-min Rain = 0
KPPS 090050Z 28009KT 13/05 A2987 RMK A01 T01330048  RH  057%=      5-min Rain = 0
KPPS 090055Z 28009KT 14/05 A2987 RMK A01 T01370047  RH  056%=      5-min Rain = 0
KPPS 090100Z 28009KT 14/05 A2988 RMK A01 T01380048  RH  055%=      5-min Rain = 0
KPPS 090105Z 28009KT 14/05 A2988 RMK A01 T01380048  RH  056%=      5-min Rain = 0
KPPS 090110Z 28008KT 14/05 A2988 RMK A01 T01360048  RH  056%=      5-min Rain = 0
KPPS 090115Z 29008KT 14/05 A2988 RMK A01 T01360048  RH  056%=      5-min Rain = 0
KPPS 090120Z 29008KT 13/05 A2988 RMK A01 T01330048  RH  058%=      5-min Rain = 0
KPPS 090125Z 29010KT 13/05 A2988 RMK A01 T01290047  RH  059%=      5-min Rain = 0
KPPS 090130Z 30010KT 13/05 A2989 RMK A01 T01310048  RH  058%=      5-min Rain = 0
KPPS 090135Z 29008KT 13/05 A2989 RMK A01 T01280047  RH  059%=      5-min Rain = 0
KPPS 090140Z 29010KT 13/05 A299 RMK A01 T01270048  RH  060%=      5-min Rain = 0
KPPS 090145Z 29009KT 13/05 A299 RMK A01 T01330049  RH  058%=      5-min Rain = 0
KPPS 090150Z 29009KT 13/05 A299 RMK A01 T01340049  RH  058%=      5-min Rain = 0
KPPS 090155Z 29008KT 13/05 A2989 RMK A01 T01340049  RH  058%=      5-min Rain = 0
KPPS 090200Z 29009KT 14/05 A2989 RMK A01 T01350050  RH  058%=      5-min Rain = 0
KPPS 090205Z 29010KT 13/05 A299 RMK A01 T01340050  RH  058%=      5-min Rain = 0
KPPS 090210Z 29009KT 13/05 A299 RMK A01 T01310050  RH  059%=      5-min Rain = 0
KPPS 090215Z 28008KT 13/05 A2989 RMK A01 T01290049  RH  060%=      5-min Rain = 0
KPPS 090220Z 28008KT 13/05 A2989 RMK A01 T01250049  RH  061%=      5-min Rain = 0
KPPS 090225Z 28009KT 13/05 A2989 RMK A01 T01260050  RH  061%=      5-min Rain = 0
KPPS 090230Z 28009KT 13/05 A299 RMK A01 T01270050  RH  061%=      5-min Rain = 0
KPPS 090235Z 28009KT 13/05 A2989 RMK A01 T01270049  RH  061%=      5-min Rain = 0
KPPS 090240Z 28009KT 13/05 A2989 RMK A01 T01260048  RH  060%=      5-min Rain = 0
KPPS 090245Z 28010KT 12/05 A2989 RMK A01 T01230048  RH  061%=      5-min Rain = 0
KPPS 090250Z 28010KT 12/05 A299 RMK A01 T01220047  RH  062%=      5-min Rain = 0
KPPS 090255Z 27009KT 12/05 A299 RMK A01 T01200047  RH  062%=      5-min Rain = 0
KPPS 090300Z 27010KT 12/05 A299 RMK A01 T01190047  RH  062%=      5-min Rain = 0
KPPS 090305Z 27011KT 12/05 A2989 RMK A01 T01200046  RH  062%=      5-min Rain = 0
KPPS 090310Z 27010KT 12/05 A2989 RMK A01 T01210045  RH  061%=      5-min Rain = 0
KPPS 090315Z 27011KT 12/04 A299 RMK A01 T01210043  RH  060%=      5-min Rain = 0
KPPS 090320Z 27010KT 12/04 A2989 RMK A01 T01190042  RH  060%=      5-min Rain = 0
KPPS 090325Z 26010KT 12/04 A2989 RMK A01 T01180041  RH  060%=      5-min Rain = 0
KPPS 090330Z 26011KT 12/04 A2989 RMK A01 T01170040  RH  060%=      5-min Rain = 0
KPPS 090335Z 25010KT 11/04 A2989 RMK A01 T01140040  RH  061%=      5-min Rain = 0
KPPS 090340Z 25010KT 11/04 A2989 RMK A01 T01110040  RH  063%=      5-min Rain = 0
KPPS 090345Z 25010KT 11/04 A2989 RMK A01 T01110042  RH  064%=      5-min Rain = 0
KPPS 090350Z 26010KT 11/04 A2989 RMK A01 T01120041  RH  063%=      5-min Rain = 0
KPPS 090355Z 26010KT 11/04 A2988 RMK A01 T01130041  RH  062%=      5-min Rain = 0
KPPS 090400Z 26010KT 11/04 A2988 RMK A01 T01130041  RH  062%=      5-min Rain = 0
KPPS 090405Z 26011KT 11/04 A2989 RMK A01 T01140041  RH  062%=      5-min Rain = 0
KPPS 090410Z 25010KT 12/04 A2988 RMK A01 T01150041  RH  062%=      5-min Rain = 0
KPPS 090415Z 26012KT 12/04 A2988 RMK A01 T01150040  RH  061%=      5-min Rain = 0
KPPS 090420Z 26011KT 12/04 A2988 RMK A01 T01160040  RH  061%=      5-min Rain = 0
KPPS 090425Z 26011KT 12/04 A2988 RMK A01 T01160039  RH  060%=      5-min Rain = 0
KPPS 090430Z 26011KT 12/04 A2988 RMK A01 T01150038  RH  060%=      5-min Rain = 0
KPPS 090435Z 27011KT 12/04 A2988 RMK A01 T01150038  RH  060%=      5-min Rain = 0
KPPS 090440Z 27011KT 12/04 A2988 RMK A01 T01160037  RH  060%=      5-min Rain = 0
KPPS 090445Z 27011KT 12/04 A2988 RMK A01 T01150037  RH  060%=      5-min Rain = 0
KPPS 090450Z 27010KT 12/04 A2988 RMK A01 T01150036  RH  059%=      5-min Rain = 0
KPPS 090455Z 27011KT 12/04 A2988 RMK A01 T01150035  RH  059%=      5-min Rain = 0
KPPS 090500Z 26010KT 11/04 A2988 RMK A01 T01130035  RH  060%=      5-min Rain = 0
KPPS 090505Z 26010KT 11/03 A2988 RMK A01 T01120034  RH  060%=      5-min Rain = 0
KPPS 090510Z 26009KT 11/03 A2988 RMK A01 T01110034  RH  060%=      5-min Rain = 0
KPPS 090515Z 26009KT 11/03 A2988 RMK A01 T01110034  RH  060%=      5-min Rain = 0
KPPS 090520Z 26010KT 11/03 A2988 RMK A01 T01120034  RH  060%=      5-min Rain = 0
KPPS 090525Z 26009KT 11/03 A2988 RMK A01 T01120033  RH  059%=      5-min Rain = 0
KPPS 090530Z 26010KT 11/03 A2988 RMK A01 T01130033  RH  059%=      5-min Rain = 0
KPPS 090535Z 26010KT 11/03 A2988 RMK A01 T01140033  RH  059%=      5-min Rain = 0
KPPS 090540Z 26010KT 11/03 A2988 RMK A01 T01140033  RH  058%=      5-min Rain = 0
KPPS 090545Z 26010KT 12/03 A2988 RMK A01 T01150033  RH  058%=      5-min Rain = 0
KPPS 090550Z 26009KT 12/03 A2988 RMK A01 T01150033  RH  058%=      5-min Rain = 0
KPPS 090555Z 26009KT 12/03 A2988 RMK A01 T01150032  RH  058%=      5-min Rain = 0

Page generated in 0.0234 seconds.